Date,TemperatureHighF,TemperatureAvgF,TemperatureLowF,DewpointHighF,DewpointAvgF,DewpointLowF,HumidityHigh,HumidityAvg,HumidityLow,PressureMaxIn,PressureMinIn,WindSpeedMaxMPH,WindSpeedAvgMPH,GustSpeedMaxMPH,PrecipitationSumIn
2013-7-1,90.0,75.4,60.6,63.1,56.4,44.6,92,57,22,29.91,29.81,11,4,14,0.00
2013-7-2,92.1,74.3,58.6,62.8,54.4,46.6,87,56,21,29.95,29.86,8,2,14,0.00
2013-7-3,96.3,75.1,54.9,64.5,56.8,48.0,96,59,22,29.95,29.82,4,1,8,0.06
2013-7-4,98.1,76.8,58.8,66.8,61.5,57.1,96,64,31,29.88,29.77,11,2,11,0.04
2013-7-5,100.4,80.3,63.7,68.9,64.4,59.4,95,63,27,29.85,29.73,9,2,14,0.00
2013-7-6,97.0,78.8,69.6,70.6,66.1,63.2,82,67,38,29.83,29.75,6,1,9,0.00
2013-7-7,100.9,84.7,70.5,71.5,67.8,64.4,86,61,31,29.86,29.77,8,2,11,0.00
2013-7-8,101.1,84.0,70.9,76.7,70.7,67.4,89,67,40,29.91,29.83,8,2,11,0.02
2013-7-9,104.2,88.9,74.5,74.4,72.4,70.4,91,62,36,29.89,29.76,13,3,13,0.00
2013-7-10,108.9,89.4,74.7,74.8,70.9,64.9,88,59,25,29.82,29.72,8,2,9,0.00
2013-7-11,104.2,88.1,75.6,76.1,72.7,67.8,90,64,33,29.83,29.72,9,2,11,0.00
2013-7-12,103.8,86.9,73.4,74.8,71.1,67.5,89,62,34,29.85,29.76,7,2,10,0.00
2013-7-13,105.4,86.2,71.2,71.4,67.0,61.8,91,57,27,29.87,29.75,8,2,8,0.00
2013-7-14,97.3,81.7,70.3,70.7,64.7,59.7,79,58,30,29.87,29.75,8,2,9,0.01
2013-7-15,88.5,75.1,66.4,71.7,67.9,61.1,98,80,51,30.02,29.87,8,2,16,0.69
2013-7-16,96.6,79.2,70.0,77.8,73.0,69.2,99,84,43,30.08,29.99,4,0,9,0.18
2013-7-17,101.5,84.5,71.4,78.7,71.9,67.1,99,71,34,30.13,30.00,6,1,9,0.01
2013-7-18,103.8,85.2,70.5,78.7,71.2,65.7,97,68,32,30.03,29.85,6,1,11,0.00
2013-7-19,104.7,86.4,72.7,76.2,71.4,66.6,97,66,31,29.87,29.72,8,2,11,0.00
2013-7-20,102.9,86.0,71.6,76.3,71.8,65.9,94,66,31,29.79,29.65,12,2,14,0.01
2013-7-21,95.2,78.0,71.4,79.6,74.6,70.0,99,90,59,29.79,29.65,6,1,10,2.37
2013-7-22,97.9,85.2,74.7,78.7,75.4,72.3,99,75,47,29.75,29.61,8,2,11,0.01
2013-7-23,105.3,88.4,75.9,84.8,76.4,68.3,95,70,41,29.74,29.60,14,2,24,0.00
2013-7-24,96.8,80.1,69.1,74.3,71.6,68.5,99,79,45,29.85,29.72,8,2,11,0.74
2013-7-25,91.6,78.8,68.7,76.3,72.5,68.5,99,83,51,29.92,29.83,3,0,6,0.05
2013-7-26,87.6,76.5,68.7,78.1,74.1,68.5,99,93,66,29.87,29.80,6,1,13,0.39
2013-7-27,89.2,75.7,65.7,70.3,65.8,62.4,99,75,43,29.91,29.80,7,2,13,0.04
2013-7-28,93.6,76.3,66.7,72.8,66.9,63.6,94,74,50,29.88,29.80,8,2,11,0.00
2013-7-29,94.1,80.0,68.7,78.6,73.2,66.7,96,81,58,29.85,29.74,9,2,11,0.02
2013-7-30,99.3,82.1,71.6,78.9,75.5,71.3,99,83,50,29.87,29.78,11,1,14,0.84
2013-7-31,96.1,83.9,75.6,79.5,76.0,71.4,99,80,46,29.91,29.83,8,2,10,0.00